Time;durP1;ratioP1;P1;durP2;ratioP2;P2;SDS_P1;SDS_P2;PMS_P1;PMS_P2;Temp;Humidity;BMP_temperature;BMP_pressure;BME280_temperature;BME280_humidity;BME280_pressure;Samples;Min_cycle;Max_cycle;Signal;HPM_P1;HPM_P2
2021/07/11 00:00:21;;;;;;;0.4;0.4;;;;;;;16.76;100;95262.95;;;;
2021/07/11 00:01:24;;;;;;;0.4;0.4;;;;;;;16.76;100;95262.95;;;;
2021/07/11 00:02:24;;;;;;;0.4;0.4;;;;;;;16.76;100;95262.95;;;;
2021/07/11 00:03:25;;;;;;;0.4;0.4;;;;;;;16.76;100;95262.95;;;;
2021/07/11 00:04:25;;;;;;;0.4;0.4;;;;;;;16.76;100;95262.95;;;;
2021/07/11 00:05:26;;;;;;;0.4;0.4;;;;;;;16.76;100;95262.95;;;;
2021/07/11 00:06:28;;;;;;;0.5;0.5;;;;;;;16.72;100;95309.58;;;;
2021/07/11 00:07:29;;;;;;;0.5;0.5;;;;;;;16.72;100;95309.58;;;;
2021/07/11 00:08:30;;;;;;;0.5;0.5;;;;;;;16.72;100;95309.58;;;;
2021/07/11 00:09:31;;;;;;;0.5;0.5;;;;;;;16.72;100;95309.58;;;;
2021/07/11 00:10:31;;;;;;;0.5;0.5;;;;;;;16.72;100;95309.58;;;;
2021/07/11 00:11:32;;;;;;;0.5;0.5;;;;;;;16.72;100;95309.58;;;;
2021/07/11 00:12:33;;;;;;;0.5;0.5;;;;;;;16.72;100;95309.58;;;;
2021/07/11 00:13:34;;;;;;;0.5;0.5;;;;;;;16.72;100;95309.58;;;;
2021/07/11 00:14:35;;;;;;;0.5;0.5;;;;;;;16.72;100;95309.58;;;;
2021/07/11 00:15:36;;;;;;;0.5;0.5;;;;;;;16.72;100;95309.58;;;;
2021/07/11 00:16:37;;;;;;;0.6;0.6;;;;;;;16.7;100;95322.54;;;;
2021/07/11 00:17:37;;;;;;;0.6;0.6;;;;;;;16.7;100;95322.54;;;;
2021/07/11 00:18:39;;;;;;;0.6;0.6;;;;;;;16.7;100;95322.54;;;;
2021/07/11 00:19:39;;;;;;;0.6;0.6;;;;;;;16.7;100;95322.54;;;;
2021/07/11 00:20:40;;;;;;;0.6;0.6;;;;;;;16.7;100;95322.54;;;;
2021/07/11 00:21:40;;;;;;;0.6;0.6;;;;;;;16.7;100;95322.54;;;;
2021/07/11 00:22:41;;;;;;;0.6;0.6;;;;;;;16.7;100;95322.54;;;;
2021/07/11 00:23:42;;;;;;;0.6;0.6;;;;;;;16.7;100;95322.54;;;;
2021/07/11 00:24:44;;;;;;;0.6;0.6;;;;;;;16.7;100;95322.54;;;;
2021/07/11 00:25:44;;;;;;;0.6;0.6;;;;;;;16.7;100;95322.54;;;;
2021/07/11 00:26:45;;;;;;;0.6;0.6;;;;;;;16.7;100;95322.54;;;;
2021/07/11 00:27:45;;;;;;;0.4;0.4;;;;;;;16.58;100;95341.2;;;;
2021/07/11 00:28:47;;;;;;;0.4;0.4;;;;;;;16.58;100;95341.2;;;;
2021/07/11 00:29:47;;;;;;;0.4;0.4;;;;;;;16.58;100;95341.2;;;;
2021/07/11 00:30:48;;;;;;;0.4;0.4;;;;;;;16.58;100;95341.2;;;;
2021/07/11 00:31:48;;;;;;;0.4;0.4;;;;;;;16.58;100;95341.2;;;;
2021/07/11 00:32:49;;;;;;;0.4;0.4;;;;;;;16.58;100;95341.2;;;;
2021/07/11 00:33:50;;;;;;;0.4;0.4;;;;;;;16.58;100;95341.2;;;;
2021/07/11 00:34:50;;;;;;;0.4;0.4;;;;;;;16.58;100;95341.2;;;;
2021/07/11 00:35:51;;;;;;;0.4;0.4;;;;;;;16.58;100;95341.2;;;;
2021/07/11 00:36:51;;;;;;;0.4;0.4;;;;;;;16.58;100;95341.2;;;;
2021/07/11 00:37:52;;;;;;;0.45;0.4;;;;;;;16.43;100;95352.87;;;;
2021/07/11 00:38:52;;;;;;;0.45;0.4;;;;;;;16.43;100;95352.87;;;;
2021/07/11 00:39:53;;;;;;;0.45;0.4;;;;;;;16.43;100;95352.87;;;;
2021/07/11 00:40:53;;;;;;;0.45;0.4;;;;;;;16.43;100;95352.87;;;;
2021/07/11 00:41:54;;;;;;;0.45;0.4;;;;;;;16.43;100;95352.87;;;;
2021/07/11 00:42:54;;;;;;;0.45;0.4;;;;;;;16.43;100;95352.87;;;;
2021/07/11 00:43:55;;;;;;;0.45;0.4;;;;;;;16.43;100;95352.87;;;;
2021/07/11 00:44:55;;;;;;;0.45;0.4;;;;;;;16.43;100;95352.87;;;;
2021/07/11 00:45:56;;;;;;;0.45;0.4;;;;;;;16.43;100;95352.87;;;;
2021/07/11 00:46:57;;;;;;;0.45;0.4;;;;;;;16.43;100;95352.87;;;;
2021/07/11 00:47:57;;;;;;;0.45;0.4;;;;;;;16.43;100;95352.87;;;;
2021/07/11 00:48:58;;;;;;;0.8;0.6;;;;;;;16.26;100;95362.23;;;;
2021/07/11 00:49:58;;;;;;;0.8;0.6;;;;;;;16.26;100;95362.23;;;;
2021/07/11 00:50:59;;;;;;;0.8;0.6;;;;;;;16.26;100;95362.23;;;;
2021/07/11 00:51:59;;;;;;;0.8;0.6;;;;;;;16.26;100;95362.23;;;;
2021/07/11 00:53:00;;;;;;;0.8;0.6;;;;;;;16.26;100;95362.23;;;;
2021/07/11 00:54:00;;;;;;;0.8;0.6;;;;;;;16.26;100;95362.23;;;;
2021/07/11 00:55:02;;;;;;;0.8;0.6;;;;;;;16.26;100;95362.23;;;;
2021/07/11 00:56:03;;;;;;;0.8;0.6;;;;;;;16.26;100;95362.23;;;;
2021/07/11 00:57:04;;;;;;;0.8;0.6;;;;;;;16.26;100;95362.23;;;;
2021/07/11 00:58:06;;;;;;;0.8;0.6;;;;;;;16.26;100;95362.23;;;;
2021/07/11 00:59:07;;;;;;;0.4;0.4;;;;;;;16.09;100;95355.27;;;;
2021/07/11 01:00:07;;;;;;;0.4;0.4;;;;;;;16.09;100;95355.27;;;;
2021/07/11 01:01:10;;;;;;;0.4;0.4;;;;;;;16.09;100;95355.27;;;;
2021/07/11 01:02:15;;;;;;;0.4;0.4;;;;;;;16.09;100;95355.27;;;;
2021/07/11 01:03:18;;;;;;;0.4;0.4;;;;;;;16.09;100;95355.27;;;;
2021/07/11 01:04:25;;;;;;;0.4;0.4;;;;;;;16.09;100;95355.27;;;;
2021/07/11 01:05:31;;;;;;;0.4;0.4;;;;;;;16.09;100;95355.27;;;;
2021/07/11 01:06:32;;;;;;;0.4;0.4;;;;;;;16.09;100;95355.27;;;;
2021/07/11 01:07:37;;;;;;;0.4;0.4;;;;;;;16.09;100;95355.27;;;;
2021/07/11 01:08:45;;;;;;;0.4;0.4;;;;;;;16.09;100;95355.27;;;;
2021/07/11 01:09:53;;;;;;;0.5;0.5;;;;;;;15.97;100;95349.37;;;;
2021/07/11 01:11:00;;;;;;;0.5;0.5;;;;;;;15.97;100;95349.37;;;;
2021/07/11 01:12:04;;;;;;;0.5;0.5;;;;;;;15.97;100;95349.37;;;;
2021/07/11 01:13:10;;;;;;;0.5;0.5;;;;;;;15.97;100;95349.37;;;;
2021/07/11 01:14:14;;;;;;;0.5;0.5;;;;;;;15.97;100;95349.37;;;;
2021/07/11 01:15:15;;;;;;;0.5;0.5;;;;;;;15.97;100;95349.37;;;;
2021/07/11 01:16:16;;;;;;;0.5;0.5;;;;;;;15.97;100;95349.37;;;;
2021/07/11 01:17:22;;;;;;;0.5;0.5;;;;;;;15.97;100;95349.37;;;;
2021/07/11 01:18:25;;;;;;;0.5;0.5;;;;;;;15.97;100;95349.37;;;;
2021/07/11 01:19:26;;;;;;;0.5;0.5;;;;;;;15.97;100;95349.37;;;;
2021/07/11 01:20:39;;;;;;;0.9;0.7;;;;;;;15.85;100;95347.28;;;;
2021/07/11 01:21:45;;;;;;;0.9;0.7;;;;;;;15.85;100;95347.28;;;;
2021/07/11 01:22:50;;;;;;;0.9;0.7;;;;;;;15.85;100;95347.28;;;;
2021/07/11 01:23:54;;;;;;;0.9;0.7;;;;;;;15.85;100;95347.28;;;;
2021/07/11 01:24:58;;;;;;;0.9;0.7;;;;;;;15.85;100;95347.28;;;;
2021/07/11 01:26:05;;;;;;;0.9;0.7;;;;;;;15.85;100;95347.28;;;;
2021/07/11 01:27:07;;;;;;;0.9;0.7;;;;;;;15.85;100;95347.28;;;;
2021/07/11 01:28:08;;;;;;;0.9;0.7;;;;;;;15.85;100;95347.28;;;;
2021/07/11 01:29:13;;;;;;;0.9;0.7;;;;;;;15.85;100;95347.28;;;;
2021/07/11 01:30:19;;;;;;;0.9;0.7;;;;;;;15.85;100;95347.28;;;;
2021/07/11 01:31:20;;;;;;;0.5;0.5;;;;;;;15.73;100;95346.7;;;;
2021/07/11 01:32:22;;;;;;;0.5;0.5;;;;;;;15.73;100;95346.7;;;;
2021/07/11 01:33:24;;;;;;;0.5;0.5;;;;;;;15.73;100;95346.7;;;;
2021/07/11 01:34:30;;;;;;;0.5;0.5;;;;;;;15.73;100;95346.7;;;;
2021/07/11 01:35:31;;;;;;;0.5;0.5;;;;;;;15.73;100;95346.7;;;;
2021/07/11 01:36:32;;;;;;;0.5;0.5;;;;;;;15.73;100;95346.7;;;;
2021/07/11 01:37:33;;;;;;;0.5;0.5;;;;;;;15.73;100;95346.7;;;;
2021/07/11 01:38:37;;;;;;;0.5;0.5;;;;;;;15.73;100;95346.7;;;;
2021/07/11 01:39:38;;;;;;;0.5;0.5;;;;;;;15.73;100;95346.7;;;;
2021/07/11 01:40:43;;;;;;;0.5;0.5;;;;;;;15.73;100;95346.7;;;;
2021/07/11 01:41:46;;;;;;;0.4;0.4;;;;;;;15.62;100;95356.31;;;;
2021/07/11 01:42:48;;;;;;;0.4;0.4;;;;;;;15.62;100;95356.31;;;;
2021/07/11 01:43:49;;;;;;;0.4;0.4;;;;;;;15.62;100;95356.31;;;;
2021/07/11 01:44:53;;;;;;;0.4;0.4;;;;;;;15.62;100;95356.31;;;;
2021/07/11 01:45:54;;;;;;;0.4;0.4;;;;;;;15.62;100;95356.31;;;;
2021/07/11 01:46:55;;;;;;;0.4;0.4;;;;;;;15.62;100;95356.31;;;;
2021/07/11 01:47:56;;;;;;;0.4;0.4;;;;;;;15.62;100;95356.31;;;;
2021/07/11 01:48:57;;;;;;;0.4;0.4;;;;;;;15.62;100;95356.31;;;;
2021/07/11 01:49:58;;;;;;;0.4;0.4;;;;;;;15.62;100;95356.31;;;;
2021/07/11 01:51:00;;;;;;;0.4;0.4;;;;;;;15.62;100;95356.31;;;;
2021/07/11 01:52:01;;;;;;;0.4;0.4;;;;;;;15.62;100;95356.31;;;;
2021/07/11 01:53:03;;;;;;;0.35;0.35;;;;;;;15.53;100;95349.86;;;;
2021/07/11 01:54:04;;;;;;;0.35;0.35;;;;;;;15.53;100;95349.86;;;;
2021/07/11 01:55:07;;;;;;;0.35;0.35;;;;;;;15.53;100;95349.86;;;;
2021/07/11 01:56:10;;;;;;;0.35;0.35;;;;;;;15.53;100;95349.86;;;;
2021/07/11 01:57:12;;;;;;;0.35;0.35;;;;;;;15.53;100;95349.86;;;;
2021/07/11 01:58:13;;;;;;;0.35;0.35;;;;;;;15.53;100;95349.86;;;;
2021/07/11 01:59:14;;;;;;;0.35;0.35;;;;;;;15.53;100;95349.86;;;;
2021/07/11 02:00:14;;;;;;;0.35;0.35;;;;;;;15.53;100;95349.86;;;;
2021/07/11 02:01:18;;;;;;;0.35;0.35;;;;;;;15.53;100;95349.86;;;;
2021/07/11 02:02:20;;;;;;;0.35;0.35;;;;;;;15.53;100;95349.86;;;;
2021/07/11 02:03:21;;;;;;;0.3;0.3;;;;;;;15.42;100;95360.82;;;;
2021/07/11 02:04:24;;;;;;;0.3;0.3;;;;;;;15.42;100;95360.82;;;;
2021/07/11 02:05:25;;;;;;;0.3;0.3;;;;;;;15.42;100;95360.82;;;;
2021/07/11 02:06:25;;;;;;;0.3;0.3;;;;;;;15.42;100;95360.82;;;;
2021/07/11 02:07:26;;;;;;;0.3;0.3;;;;;;;15.42;100;95360.82;;;;
2021/07/11 02:08:26;;;;;;;0.3;0.3;;;;;;;15.42;100;95360.82;;;;
2021/07/11 02:09:27;;;;;;;0.3;0.3;;;;;;;15.42;100;95360.82;;;;
2021/07/11 02:10:27;;;;;;;0.3;0.3;;;;;;;15.42;100;95360.82;;;;
2021/07/11 02:11:28;;;;;;;0.3;0.3;;;;;;;15.42;100;95360.82;;;;
2021/07/11 02:12:29;;;;;;;0.3;0.3;;;;;;;15.42;100;95360.82;;;;
2021/07/11 02:13:32;;;;;;;0.3;0.3;;;;;;;15.42;100;95360.82;;;;
2021/07/11 02:14:36;;;;;;;0.2;0.2;;;;;;;15.32;100;95359.39;;;;
2021/07/11 02:15:41;;;;;;;0.2;0.2;;;;;;;15.32;100;95359.39;;;;
2021/07/11 02:16:44;;;;;;;0.2;0.2;;;;;;;15.32;100;95359.39;;;;
2021/07/11 02:17:54;;;;;;;0.2;0.2;;;;;;;15.32;100;95359.39;;;;
2021/07/11 02:18:57;;;;;;;0.2;0.2;;;;;;;15.32;100;95359.39;;;;
2021/07/11 02:20:00;;;;;;;0.2;0.2;;;;;;;15.32;100;95359.39;;;;
2021/07/11 02:21:03;;;;;;;0.2;0.2;;;;;;;15.32;100;95359.39;;;;
2021/07/11 02:22:07;;;;;;;0.2;0.2;;;;;;;15.32;100;95359.39;;;;
2021/07/11 02:23:10;;;;;;;0.2;0.2;;;;;;;15.32;100;95359.39;;;;
2021/07/11 02:24:11;;;;;;;0.2;0.2;;;;;;;15.32;100;95359.39;;;;
2021/07/11 02:25:13;;;;;;;0.2;0.2;;;;;;;15.22;100;95366.52;;;;
2021/07/11 02:26:16;;;;;;;0.2;0.2;;;;;;;15.22;100;95366.52;;;;
2021/07/11 02:27:17;;;;;;;0.2;0.2;;;;;;;15.22;100;95366.52;;;;
2021/07/11 02:28:20;;;;;;;0.2;0.2;;;;;;;15.22;100;95366.52;;;;
2021/07/11 02:29:21;;;;;;;0.2;0.2;;;;;;;15.22;100;95366.52;;;;
2021/07/11 02:30:25;;;;;;;0.2;0.2;;;;;;;15.22;100;95366.52;;;;
2021/07/11 02:31:27;;;;;;;0.2;0.2;;;;;;;15.22;100;95366.52;;;;
2021/07/11 02:32:30;;;;;;;0.2;0.2;;;;;;;15.22;100;95366.52;;;;
2021/07/11 02:33:32;;;;;;;0.2;0.2;;;;;;;15.22;100;95366.52;;;;
2021/07/11 02:34:33;;;;;;;0.2;0.2;;;;;;;15.22;100;95366.52;;;;
2021/07/11 02:35:35;;;;;;;0.1;0.1;;;;;;;15.14;100;95367.86;;;;
2021/07/11 02:36:38;;;;;;;0.1;0.1;;;;;;;15.14;100;95367.86;;;;
2021/07/11 02:37:46;;;;;;;0.1;0.1;;;;;;;15.14;100;95367.86;;;;
2021/07/11 02:38:49;;;;;;;0.1;0.1;;;;;;;15.14;100;95367.86;;;;
2021/07/11 02:39:54;;;;;;;0.1;0.1;;;;;;;15.14;100;95367.86;;;;
2021/07/11 02:40:56;;;;;;;0.1;0.1;;;;;;;15.14;100;95367.86;;;;
2021/07/11 02:41:58;;;;;;;0.1;0.1;;;;;;;15.14;100;95367.86;;;;
2021/07/11 02:43:03;;;;;;;0.1;0.1;;;;;;;15.14;100;95367.86;;;;
2021/07/11 02:44:08;;;;;;;0.1;0.1;;;;;;;15.14;100;95367.86;;;;
2021/07/11 02:45:10;;;;;;;0.1;0.1;;;;;;;15.14;100;95367.86;;;;
2021/07/11 02:46:13;;;;;;;0.2;0.2;;;;;;;15.07;100;95359.64;;;;
2021/07/11 02:47:19;;;;;;;0.2;0.2;;;;;;;15.07;100;95359.64;;;;
2021/07/11 02:48:23;;;;;;;0.2;0.2;;;;;;;15.07;100;95359.64;;;;
2021/07/11 02:49:24;;;;;;;0.2;0.2;;;;;;;15.07;100;95359.64;;;;
2021/07/11 02:50:26;;;;;;;0.2;0.2;;;;;;;15.07;100;95359.64;;;;
2021/07/11 02:51:28;;;;;;;0.2;0.2;;;;;;;15.07;100;95359.64;;;;
2021/07/11 02:52:34;;;;;;;0.2;0.2;;;;;;;15.07;100;95359.64;;;;
2021/07/11 02:53:35;;;;;;;0.2;0.2;;;;;;;15.07;100;95359.64;;;;
2021/07/11 02:54:36;;;;;;;0.2;0.2;;;;;;;15.07;100;95359.64;;;;
2021/07/11 02:55:41;;;;;;;0.2;0.2;;;;;;;15.07;100;95359.64;;;;
2021/07/11 02:56:44;;;;;;;0.2;0.2;;;;;;;15.01;100;95362.98;;;;
2021/07/11 02:57:48;;;;;;;0.2;0.2;;;;;;;15.01;100;95362.98;;;;
2021/07/11 02:58:52;;;;;;;0.2;0.2;;;;;;;15.01;100;95362.98;;;;
2021/07/11 02:59:58;;;;;;;0.2;0.2;;;;;;;15.01;100;95362.98;;;;
2021/07/11 03:01:00;;;;;;;0.2;0.2;;;;;;;15.01;100;95362.98;;;;
2021/07/11 03:02:00;;;;;;;0.2;0.2;;;;;;;15.01;100;95362.98;;;;
2021/07/11 03:03:03;;;;;;;0.2;0.2;;;;;;;15.01;100;95362.98;;;;
2021/07/11 03:04:05;;;;;;;0.2;0.2;;;;;;;15.01;100;95362.98;;;;
2021/07/11 03:05:06;;;;;;;0.2;0.2;;;;;;;15.01;100;95362.98;;;;
2021/07/11 03:06:12;;;;;;;0.2;0.2;;;;;;;15.01;100;95362.98;;;;
2021/07/11 03:07:12;;;;;;;0.2;0.2;;;;;;;14.92;100;95362.24;;;;
2021/07/11 03:08:14;;;;;;;0.2;0.2;;;;;;;14.92;100;95362.24;;;;
2021/07/11 03:09:15;;;;;;;0.2;0.2;;;;;;;14.92;100;95362.24;;;;
2021/07/11 03:10:15;;;;;;;0.2;0.2;;;;;;;14.92;100;95362.24;;;;
2021/07/11 03:11:17;;;;;;;0.2;0.2;;;;;;;14.92;100;95362.24;;;;
2021/07/11 03:12:19;;;;;;;0.2;0.2;;;;;;;14.92;100;95362.24;;;;
2021/07/11 03:13:20;;;;;;;0.2;0.2;;;;;;;14.92;100;95362.24;;;;
2021/07/11 03:14:21;;;;;;;0.2;0.2;;;;;;;14.92;100;95362.24;;;;
2021/07/11 03:15:24;;;;;;;0.2;0.2;;;;;;;14.92;100;95362.24;;;;
2021/07/11 03:16:25;;;;;;;0.2;0.2;;;;;;;14.92;100;95362.24;;;;
2021/07/11 03:17:27;;;;;;;0.2;0.2;;;;;;;14.92;100;95362.24;;;;
2021/07/11 03:18:28;;;;;;;0.15;0.15;;;;;;;14.81;100;95354.14;;;;
2021/07/11 03:19:31;;;;;;;0.15;0.15;;;;;;;14.81;100;95354.14;;;;
2021/07/11 03:20:37;;;;;;;0.15;0.15;;;;;;;14.81;100;95354.14;;;;
2021/07/11 03:21:40;;;;;;;0.15;0.15;;;;;;;14.81;100;95354.14;;;;
2021/07/11 03:22:41;;;;;;;0.15;0.15;;;;;;;14.81;100;95354.14;;;;
2021/07/11 03:23:43;;;;;;;0.15;0.15;;;;;;;14.81;100;95354.14;;;;
2021/07/11 03:24:45;;;;;;;0.15;0.15;;;;;;;14.81;100;95354.14;;;;
2021/07/11 03:25:48;;;;;;;0.15;0.15;;;;;;;14.81;100;95354.14;;;;
2021/07/11 03:26:51;;;;;;;0.15;0.15;;;;;;;14.81;100;95354.14;;;;
2021/07/11 03:27:53;;;;;;;0.15;0.15;;;;;;;14.81;100;95354.14;;;;
2021/07/11 03:28:54;;;;;;;0.2;0.2;;;;;;;14.71;100;95345.5;;;;
2021/07/11 03:30:01;;;;;;;0.2;0.2;;;;;;;14.71;100;95345.5;;;;
2021/07/11 03:31:05;;;;;;;0.2;0.2;;;;;;;14.71;100;95345.5;;;;
2021/07/11 03:32:09;;;;;;;0.2;0.2;;;;;;;14.71;100;95345.5;;;;
2021/07/11 03:33:11;;;;;;;0.2;0.2;;;;;;;14.71;100;95345.5;;;;
2021/07/11 03:34:13;;;;;;;0.2;0.2;;;;;;;14.71;100;95345.5;;;;
2021/07/11 03:35:15;;;;;;;0.2;0.2;;;;;;;14.71;100;95345.5;;;;
2021/07/11 03:36:17;;;;;;;0.2;0.2;;;;;;;14.71;100;95345.5;;;;
2021/07/11 03:37:20;;;;;;;0.2;0.2;;;;;;;14.71;100;95345.5;;;;
2021/07/11 03:38:23;;;;;;;0.2;0.2;;;;;;;14.71;100;95345.5;;;;
2021/07/11 03:39:37;;;;;;;0.1;0.1;;;;;;;14.62;100;95338.76;;;;
2021/07/11 03:40:41;;;;;;;0.1;0.1;;;;;;;14.62;100;95338.76;;;;
2021/07/11 03:41:44;;;;;;;0.1;0.1;;;;;;;14.62;100;95338.76;;;;
2021/07/11 03:42:46;;;;;;;0.1;0.1;;;;;;;14.62;100;95338.76;;;;
2021/07/11 03:43:51;;;;;;;0.1;0.1;;;;;;;14.62;100;95338.76;;;;
2021/07/11 03:44:55;;;;;;;0.1;0.1;;;;;;;14.62;100;95338.76;;;;
2021/07/11 03:45:56;;;;;;;0.1;0.1;;;;;;;14.62;100;95338.76;;;;
2021/07/11 03:47:00;;;;;;;0.1;0.1;;;;;;;14.62;100;95338.76;;;;
2021/07/11 03:48:04;;;;;;;0.1;0.1;;;;;;;14.62;100;95338.76;;;;
2021/07/11 03:49:08;;;;;;;0.1;0.1;;;;;;;14.62;100;95338.76;;;;
2021/07/11 03:50:12;;;;;;;0.15;0.15;;;;;;;14.56;100;95335.33;;;;
2021/07/11 03:51:14;;;;;;;0.15;0.15;;;;;;;14.56;100;95335.33;;;;
2021/07/11 03:52:16;;;;;;;0.15;0.15;;;;;;;14.56;100;95335.33;;;;
2021/07/11 03:53:22;;;;;;;0.15;0.15;;;;;;;14.56;100;95335.33;;;;
2021/07/11 03:54:25;;;;;;;0.15;0.15;;;;;;;14.56;100;95335.33;;;;
2021/07/11 03:55:27;;;;;;;0.15;0.15;;;;;;;14.56;100;95335.33;;;;
2021/07/11 03:56:29;;;;;;;0.15;0.15;;;;;;;14.56;100;95335.33;;;;
2021/07/11 03:57:32;;;;;;;0.15;0.15;;;;;;;14.56;100;95335.33;;;;
2021/07/11 03:58:33;;;;;;;0.15;0.15;;;;;;;14.56;100;95335.33;;;;
2021/07/11 03:59:38;;;;;;;0.15;0.15;;;;;;;14.56;100;95335.33;;;;
2021/07/11 04:00:40;;;;;;;0.4;0.1;;;;;;;14.49;100;95343.41;;;;
2021/07/11 04:01:43;;;;;;;0.4;0.1;;;;;;;14.49;100;95343.41;;;;
2021/07/11 04:02:45;;;;;;;0.4;0.1;;;;;;;14.49;100;95343.41;;;;
2021/07/11 04:03:48;;;;;;;0.4;0.1;;;;;;;14.49;100;95343.41;;;;
2021/07/11 04:04:50;;;;;;;0.4;0.1;;;;;;;14.49;100;95343.41;;;;
2021/07/11 04:05:51;;;;;;;0.4;0.1;;;;;;;14.49;100;95343.41;;;;
2021/07/11 04:06:53;;;;;;;0.4;0.1;;;;;;;14.49;100;95343.41;;;;
2021/07/11 04:07:55;;;;;;;0.4;0.1;;;;;;;14.49;100;95343.41;;;;
2021/07/11 04:08:56;;;;;;;0.4;0.1;;;;;;;14.49;100;95343.41;;;;
2021/07/11 04:10:00;;;;;;;0.4;0.1;;;;;;;14.49;100;95343.41;;;;
2021/07/11 04:11:01;;;;;;;0.4;0.1;;;;;;;14.49;100;95343.41;;;;
2021/07/11 04:12:02;;;;;;;0.2;0.1;;;;;;;14.43;100;95337.64;;;;
2021/07/11 04:13:03;;;;;;;0.2;0.1;;;;;;;14.43;100;95337.64;;;;
2021/07/11 04:14:04;;;;;;;0.2;0.1;;;;;;;14.43;100;95337.64;;;;
2021/07/11 04:15:04;;;;;;;0.2;0.1;;;;;;;14.43;100;95337.64;;;;
2021/07/11 04:16:06;;;;;;;0.2;0.1;;;;;;;14.43;100;95337.64;;;;
2021/07/11 04:17:09;;;;;;;0.2;0.1;;;;;;;14.43;100;95337.64;;;;
2021/07/11 04:18:11;;;;;;;0.2;0.1;;;;;;;14.43;100;95337.64;;;;
2021/07/11 04:19:15;;;;;;;0.2;0.1;;;;;;;14.43;100;95337.64;;;;
2021/07/11 04:20:21;;;;;;;0.2;0.1;;;;;;;14.43;100;95337.64;;;;
2021/07/11 04:21:23;;;;;;;0.2;0.1;;;;;;;14.43;100;95337.64;;;;
2021/07/11 04:22:27;;;;;;;0.1;0.1;;;;;;;14.45;100;95334.54;;;;
2021/07/11 04:23:28;;;;;;;0.1;0.1;;;;;;;14.45;100;95334.54;;;;
2021/07/11 04:24:32;;;;;;;0.1;0.1;;;;;;;14.45;100;95334.54;;;;
2021/07/11 04:25:34;;;;;;;0.1;0.1;;;;;;;14.45;100;95334.54;;;;
2021/07/11 04:26:38;;;;;;;0.1;0.1;;;;;;;14.45;100;95334.54;;;;
2021/07/11 04:27:39;;;;;;;0.1;0.1;;;;;;;14.45;100;95334.54;;;;
2021/07/11 04:28:42;;;;;;;0.1;0.1;;;;;;;14.45;100;95334.54;;;;
2021/07/11 04:29:43;;;;;;;0.1;0.1;;;;;;;14.45;100;95334.54;;;;
2021/07/11 04:30:45;;;;;;;0.1;0.1;;;;;;;14.45;100;95334.54;;;;
2021/07/11 04:31:46;;;;;;;0.1;0.1;;;;;;;14.45;100;95334.54;;;;
2021/07/11 04:32:47;;;;;;;0.2;0.2;;;;;;;14.45;100;95327.34;;;;
2021/07/11 04:33:48;;;;;;;0.2;0.2;;;;;;;14.45;100;95327.34;;;;
2021/07/11 04:34:49;;;;;;;0.2;0.2;;;;;;;14.45;100;95327.34;;;;
2021/07/11 04:35:50;;;;;;;0.2;0.2;;;;;;;14.45;100;95327.34;;;;
2021/07/11 04:36:50;;;;;;;0.2;0.2;;;;;;;14.45;100;95327.34;;;;
2021/07/11 04:37:51;;;;;;;0.2;0.2;;;;;;;14.45;100;95327.34;;;;
2021/07/11 04:38:51;;;;;;;0.2;0.2;;;;;;;14.45;100;95327.34;;;;
2021/07/11 04:39:52;;;;;;;0.2;0.2;;;;;;;14.45;100;95327.34;;;;
2021/07/11 04:40:53;;;;;;;0.2;0.2;;;;;;;14.45;100;95327.34;;;;
2021/07/11 04:41:53;;;;;;;0.2;0.2;;;;;;;14.45;100;95327.34;;;;
2021/07/11 04:42:55;;;;;;;0.2;0.2;;;;;;;14.45;100;95327.34;;;;
2021/07/11 04:44:02;;;;;;;0.15;0.1;;;;;;;14.47;100;95328.31;;;;
2021/07/11 04:45:03;;;;;;;0.15;0.1;;;;;;;14.47;100;95328.31;;;;
2021/07/11 04:46:06;;;;;;;0.15;0.1;;;;;;;14.47;100;95328.31;;;;
2021/07/11 04:47:06;;;;;;;0.15;0.1;;;;;;;14.47;100;95328.31;;;;
2021/07/11 04:48:07;;;;;;;0.15;0.1;;;;;;;14.47;100;95328.31;;;;
2021/07/11 04:49:08;;;;;;;0.15;0.1;;;;;;;14.47;100;95328.31;;;;
2021/07/11 04:50:09;;;;;;;0.15;0.1;;;;;;;14.47;100;95328.31;;;;
2021/07/11 04:51:10;;;;;;;0.15;0.1;;;;;;;14.47;100;95328.31;;;;
2021/07/11 04:52:11;;;;;;;0.15;0.1;;;;;;;14.47;100;95328.31;;;;
2021/07/11 04:53:12;;;;;;;0.15;0.1;;;;;;;14.47;100;95328.31;;;;
2021/07/11 04:54:13;;;;;;;0.35;0.1;;;;;;;14.56;100;95327.7;;;;
2021/07/11 04:55:15;;;;;;;0.35;0.1;;;;;;;14.56;100;95327.7;;;;
2021/07/11 04:56:16;;;;;;;0.35;0.1;;;;;;;14.56;100;95327.7;;;;
2021/07/11 04:57:16;;;;;;;0.35;0.1;;;;;;;14.56;100;95327.7;;;;
2021/07/11 04:58:17;;;;;;;0.35;0.1;;;;;;;14.56;100;95327.7;;;;
2021/07/11 04:59:17;;;;;;;0.35;0.1;;;;;;;14.56;100;95327.7;;;;
2021/07/11 05:00:20;;;;;;;0.35;0.1;;;;;;;14.56;100;95327.7;;;;
2021/07/11 05:01:21;;;;;;;0.35;0.1;;;;;;;14.56;100;95327.7;;;;
2021/07/11 05:02:21;;;;;;;0.35;0.1;;;;;;;14.56;100;95327.7;;;;
2021/07/11 05:03:22;;;;;;;0.35;0.1;;;;;;;14.56;100;95327.7;;;;
2021/07/11 05:04:22;;;;;;;0.35;0.1;;;;;;;14.56;100;95327.7;;;;
2021/07/11 05:05:23;;;;;;;0.1;0.1;;;;;;;14.61;100;95341.33;;;;
2021/07/11 05:06:23;;;;;;;0.1;0.1;;;;;;;14.61;100;95341.33;;;;
2021/07/11 05:07:24;;;;;;;0.1;0.1;;;;;;;14.61;100;95341.33;;;;
2021/07/11 05:08:24;;;;;;;0.1;0.1;;;;;;;14.61;100;95341.33;;;;
2021/07/11 05:09:25;;;;;;;0.1;0.1;;;;;;;14.61;100;95341.33;;;;
2021/07/11 05:10:25;;;;;;;0.1;0.1;;;;;;;14.61;100;95341.33;;;;
2021/07/11 05:11:26;;;;;;;0.1;0.1;;;;;;;14.61;100;95341.33;;;;
2021/07/11 05:12:27;;;;;;;0.1;0.1;;;;;;;14.61;100;95341.33;;;;
2021/07/11 05:13:27;;;;;;;0.1;0.1;;;;;;;14.61;100;95341.33;;;;
2021/07/11 05:14:28;;;;;;;0.1;0.1;;;;;;;14.61;100;95341.33;;;;
2021/07/11 05:15:28;;;;;;;0.05;0;;;;;;;14.71;100;95348.22;;;;
2021/07/11 05:16:29;;;;;;;0.05;0;;;;;;;14.71;100;95348.22;;;;
2021/07/11 05:17:30;;;;;;;0.05;0;;;;;;;14.71;100;95348.22;;;;
2021/07/11 05:18:31;;;;;;;0.05;0;;;;;;;14.71;100;95348.22;;;;
2021/07/11 05:19:31;;;;;;;0.05;0;;;;;;;14.71;100;95348.22;;;;
2021/07/11 05:20:32;;;;;;;0.05;0;;;;;;;14.71;100;95348.22;;;;
2021/07/11 05:21:33;;;;;;;0.05;0;;;;;;;14.71;100;95348.22;;;;
2021/07/11 05:22:33;;;;;;;0.05;0;;;;;;;14.71;100;95348.22;;;;
2021/07/11 05:23:34;;;;;;;0.05;0;;;;;;;14.71;100;95348.22;;;;
2021/07/11 05:24:35;;;;;;;0.05;0;;;;;;;14.71;100;95348.22;;;;
2021/07/11 05:25:36;;;;;;;0.05;0;;;;;;;14.71;100;95348.22;;;;
2021/07/11 05:26:37;;;;;;;0.6;0.2;;;;;;;14.87;100;95345.9;;;;
2021/07/11 05:27:37;;;;;;;0.6;0.2;;;;;;;14.87;100;95345.9;;;;
2021/07/11 05:28:39;;;;;;;0.6;0.2;;;;;;;14.87;100;95345.9;;;;
2021/07/11 05:29:40;;;;;;;0.6;0.2;;;;;;;14.87;100;95345.9;;;;
2021/07/11 05:30:41;;;;;;;0.6;0.2;;;;;;;14.87;100;95345.9;;;;
2021/07/11 05:31:41;;;;;;;0.6;0.2;;;;;;;14.87;100;95345.9;;;;
2021/07/11 05:32:42;;;;;;;0.6;0.2;;;;;;;14.87;100;95345.9;;;;
2021/07/11 05:33:42;;;;;;;0.6;0.2;;;;;;;14.87;100;95345.9;;;;
2021/07/11 05:34:43;;;;;;;0.6;0.2;;;;;;;14.87;100;95345.9;;;;
2021/07/11 05:35:44;;;;;;;0.6;0.2;;;;;;;14.87;100;95345.9;;;;
2021/07/11 05:36:44;;;;;;;0.3;0.1;;;;;;;14.97;100;95338.62;;;;
2021/07/11 05:37:45;;;;;;;0.3;0.1;;;;;;;14.97;100;95338.62;;;;
2021/07/11 05:38:46;;;;;;;0.3;0.1;;;;;;;14.97;100;95338.62;;;;
2021/07/11 05:39:46;;;;;;;0.3;0.1;;;;;;;14.97;100;95338.62;;;;
2021/07/11 05:40:47;;;;;;;0.3;0.1;;;;;;;14.97;100;95338.62;;;;
2021/07/11 05:41:47;;;;;;;0.3;0.1;;;;;;;14.97;100;95338.62;;;;
2021/07/11 05:42:49;;;;;;;0.3;0.1;;;;;;;14.97;100;95338.62;;;;
2021/07/11 05:43:49;;;;;;;0.3;0.1;;;;;;;14.97;100;95338.62;;;;
2021/07/11 05:44:50;;;;;;;0.3;0.1;;;;;;;14.97;100;95338.62;;;;
2021/07/11 05:45:51;;;;;;;0.3;0.1;;;;;;;14.97;100;95338.62;;;;
2021/07/11 05:46:51;;;;;;;0.3;0.1;;;;;;;14.97;100;95338.62;;;;
2021/07/11 05:47:52;;;;;;;0;0;;;;;;;15.08;100;95343.05;;;;
2021/07/11 05:48:52;;;;;;;0;0;;;;;;;15.08;100;95343.05;;;;
2021/07/11 05:49:53;;;;;;;0;0;;;;;;;15.08;100;95343.05;;;;
2021/07/11 05:50:53;;;;;;;0;0;;;;;;;15.08;100;95343.05;;;;
2021/07/11 05:51:54;;;;;;;0;0;;;;;;;15.08;100;95343.05;;;;
2021/07/11 05:52:54;;;;;;;0;0;;;;;;;15.08;100;95343.05;;;;
2021/07/11 05:53:55;;;;;;;0;0;;;;;;;15.08;100;95343.05;;;;
2021/07/11 05:54:56;;;;;;;0;0;;;;;;;15.08;100;95343.05;;;;
2021/07/11 05:55:56;;;;;;;0;0;;;;;;;15.08;100;95343.05;;;;
2021/07/11 05:56:57;;;;;;;0;0;;;;;;;15.08;100;95343.05;;;;
2021/07/11 05:57:57;;;;;;;0;0;;;;;;;15.29;100;95338.95;;;;
2021/07/11 05:58:58;;;;;;;0;0;;;;;;;15.29;100;95338.95;;;;
2021/07/11 05:59:58;;;;;;;0;0;;;;;;;15.29;100;95338.95;;;;
2021/07/11 06:00:59;;;;;;;0;0;;;;;;;15.29;100;95338.95;;;;
2021/07/11 06:02:00;;;;;;;0;0;;;;;;;15.29;100;95338.95;;;;
2021/07/11 06:03:00;;;;;;;0;0;;;;;;;15.29;100;95338.95;;;;
2021/07/11 06:04:01;;;;;;;0;0;;;;;;;15.29;100;95338.95;;;;
2021/07/11 06:05:02;;;;;;;0;0;;;;;;;15.29;100;95338.95;;;;
2021/07/11 06:06:03;;;;;;;0;0;;;;;;;15.29;100;95338.95;;;;
2021/07/11 06:07:04;;;;;;;0;0;;;;;;;15.29;100;95338.95;;;;
2021/07/11 06:08:05;;;;;;;0;0;;;;;;;15.29;100;95338.95;;;;
2021/07/11 06:09:05;;;;;;;0;0;;;;;;;15.29;100;95338.95;;;;
2021/07/11 06:10:06;;;;;;;0;0;;;;;;;15.29;100;95338.95;;;;
2021/07/11 06:11:07;;;;;;;0;0;;;;;;;15.29;100;95338.95;;;;
2021/07/11 06:12:08;;;;;;;0;0;;;;;;;15.29;100;95338.95;;;;
2021/07/11 06:13:09;;;;;;;0;0;;;;;;;15.29;100;95338.95;;;;
2021/07/11 06:14:09;;;;;;;0;0;;;;;;;15.29;100;95338.95;;;;
2021/07/11 06:15:10;;;;;;;0;0;;;;;;;15.29;100;95338.95;;;;
2021/07/11 06:16:12;;;;;;;0;0;;;;;;;15.29;100;95338.95;;;;
2021/07/11 06:17:12;;;;;;;0;0;;;;;;;15.29;100;95338.95;;;;
2021/07/11 06:18:13;;;;;;;0;0;;;;;;;15.29;100;95338.95;;;;
2021/07/11 06:19:13;;;;;;;0;0;;;;;;;15.29;100;95338.95;;;;
2021/07/11 06:20:15;;;;;;;0;0;;;;;;;15.29;100;95338.95;;;;
2021/07/11 06:21:15;;;;;;;0;0;;;;;;;15.29;100;95338.95;;;;
2021/07/11 06:22:16;;;;;;;0;0;;;;;;;15.29;100;95338.95;;;;
2021/07/11 06:23:17;;;;;;;0;0;;;;;;;15.29;100;95338.95;;;;
2021/07/11 06:24:17;;;;;;;0;0;;;;;;;15.29;100;95338.95;;;;
2021/07/11 06:25:18;;;;;;;0;0;;;;;;;15.29;100;95338.95;;;;
2021/07/11 06:26:18;;;;;;;0;0;;;;;;;15.29;100;95338.95;;;;
2021/07/11 06:27:19;;;;;;;0;0;;;;;;;15.29;100;95338.95;;;;
2021/07/11 06:28:20;;;;;;;0;0;;;;;;;15.29;100;95338.95;;;;
2021/07/11 06:29:20;;;;;;;0;0;;;;;;;15.29;100;95338.95;;;;
2021/07/11 06:30:20;;;;;;;0;0;;;;;;;15.29;100;95338.95;;;;
2021/07/11 06:31:21;;;;;;;0;0;;;;;;;15.29;100;95338.95;;;;